EGLL

London Heathrow Airport

London, United Kingdom
METAR EGLL 171620Z AUTO 26010KT 230V290 9999 NCD 22/09 Q1019
Observed Flight Rules
Aug-17 @ 16:20 UTC (33 minutes ago) Visual Flight Rules
Wind Visibility Clouds
260° at 10 knots 10,000+ meters
  • Clear skies
Temperatures Readings
Current 22°C / 72°F
Dewpoint 9°C / 48°F
Humidity 44%
Altimeter 30.09" Hg
Pressure 1019 hPa
Elevation 24
METAR EGLL 171620Z AUTO 26010KT 230V290 9999 NCD 22/09 Q1019
Observed Flight Rules
Aug-17 @ 16:20 UTC
(33 minutes ago)
VFR
Wind Visibility
260° at 10 knots 10,000+ meters
Clouds
  • Clear skies
Temperature Dewpoint
22°C / 72°F 9°C / 48°F
Humidity Altimeter Pressure
44% 30.09" Hg 1019 hPa